createdAt,value
2018-05-31T00:01:44.387Z,12.43
2018-05-31T00:04:12.666Z,8.87
2018-05-31T00:06:40.942Z,9.33
2018-05-31T00:09:09.226Z,13.20
2018-05-31T00:11:37.498Z,9.47
2018-05-31T00:14:05.780Z,7.23
2018-05-31T00:16:34.051Z,12.50
2018-05-31T00:19:02.337Z,9.57
2018-05-31T00:21:30.625Z,12.30
2018-05-31T00:23:58.923Z,9.00
2018-05-31T00:26:27.196Z,10.70
2018-05-31T00:28:55.473Z,9.10
2018-05-31T00:31:23.748Z,9.73
2018-05-31T00:33:52.018Z,7.97
2018-05-31T00:36:20.297Z,8.47
2018-05-31T00:38:48.572Z,8.40
2018-05-31T00:41:16.850Z,9.50
2018-05-31T00:43:45.129Z,9.83
2018-05-31T00:46:13.419Z,10.13
2018-05-31T00:48:41.690Z,8.97
2018-05-31T00:51:09.962Z,7.93
2018-05-31T00:53:38.250Z,10.33
2018-05-31T00:56:16.434Z,10.07
2018-05-31T00:58:44.717Z,7.70
2018-05-31T01:01:12.986Z,8.47
2018-05-31T01:03:41.278Z,7.63
2018-05-31T01:06:09.551Z,10.27
2018-05-31T01:08:37.830Z,13.87
2018-05-31T01:11:06.102Z,9.87
2018-05-31T01:13:34.381Z,9.80
2018-05-31T01:16:02.674Z,12.33
2018-05-31T01:18:30.960Z,12.77
2018-05-31T01:20:59.239Z,10.77
2018-05-31T01:23:27.551Z,12.03
2018-05-31T01:25:55.829Z,11.10
2018-05-31T01:28:24.106Z,11.47
2018-05-31T01:30:52.398Z,11.93
2018-05-31T01:33:20.678Z,12.30
2018-05-31T01:35:48.963Z,13.70
2018-05-31T01:38:28.982Z,9.93
2018-05-31T01:40:57.265Z,9.07
2018-05-31T01:43:25.550Z,10.87
2018-05-31T01:45:53.841Z,11.27
2018-05-31T01:48:22.117Z,8.93
2018-05-31T01:50:50.406Z,10.90
2018-05-31T01:53:18.685Z,9.87
2018-05-31T01:55:46.954Z,11.37
2018-05-31T01:58:15.242Z,9.37
2018-05-31T02:00:43.509Z,9.77
2018-05-31T02:03:11.790Z,9.10
2018-05-31T02:05:40.059Z,9.40
2018-05-31T02:08:08.342Z,9.43
2018-05-31T02:10:36.615Z,9.00
2018-05-31T02:13:04.903Z,5.80
2018-05-31T02:15:33.174Z,10.50
2018-05-31T02:18:01.467Z,9.83
2018-05-31T02:20:29.741Z,7.03
2018-05-31T02:22:58.028Z,10.27
2018-05-31T02:25:26.326Z,8.83
2018-05-31T02:27:54.590Z,9.30
2018-05-31T02:30:22.874Z,7.83
2018-05-31T02:32:51.137Z,7.53
2018-05-31T02:35:19.413Z,9.23
2018-05-31T02:37:47.682Z,9.20
2018-05-31T02:40:15.962Z,6.93
2018-05-31T02:42:44.230Z,6.97
2018-05-31T02:45:13.373Z,10.93
2018-05-31T02:47:41.646Z,7.77
2018-05-31T02:50:09.930Z,8.43
2018-05-31T02:52:38.218Z,7.27
2018-05-31T02:55:06.485Z,9.53
2018-05-31T02:57:34.766Z,6.47
2018-05-31T03:00:03.042Z,4.90
2018-05-31T03:02:31.326Z,7.20
2018-05-31T03:04:59.591Z,5.37
2018-05-31T03:07:27.877Z,7.60
2018-05-31T03:09:56.146Z,7.70
2018-05-31T03:12:24.923Z,7.97
2018-05-31T03:14:53.190Z,6.63
2018-05-31T03:17:21.461Z,6.03
2018-05-31T03:19:49.748Z,5.83
2018-05-31T03:22:18.015Z,8.23
2018-05-31T03:24:46.378Z,6.47
2018-05-31T03:27:14.647Z,8.27
2018-05-31T03:29:42.927Z,5.77
2018-05-31T03:32:11.198Z,6.40
2018-05-31T03:34:39.478Z,8.23
2018-05-31T03:37:07.749Z,7.63
2018-05-31T03:39:36.039Z,7.00
2018-05-31T03:42:04.303Z,5.20
2018-05-31T03:44:32.575Z,6.20
2018-05-31T03:47:00.854Z,6.87
2018-05-31T03:49:29.136Z,9.90
2018-05-31T03:51:57.419Z,7.83
2018-05-31T03:54:25.686Z,5.77
2018-05-31T03:56:53.970Z,6.23
2018-05-31T03:59:22.234Z,6.50
2018-05-31T04:01:51.370Z,4.93
2018-05-31T04:04:19.646Z,4.07
2018-05-31T04:06:47.942Z,7.67
2018-05-31T04:09:16.234Z,7.40
2018-05-31T04:11:44.510Z,8.50
2018-05-31T04:14:12.810Z,6.73
2018-05-31T04:16:41.087Z,4.23
2018-05-31T04:19:09.366Z,5.93
2018-05-31T04:21:37.638Z,6.87
2018-05-31T04:24:05.921Z,6.30
2018-05-31T04:26:34.208Z,6.83
2018-05-31T04:29:02.487Z,5.43
2018-05-31T04:31:30.762Z,4.97
2018-05-31T04:33:59.054Z,5.53
2018-05-31T04:36:27.326Z,5.93
2018-05-31T04:38:55.599Z,8.70
2018-05-31T04:41:23.877Z,9.47
2018-05-31T04:43:52.157Z,5.50
2018-05-31T04:46:20.430Z,6.33
2018-05-31T04:48:48.707Z,5.87
2018-05-31T04:51:17.014Z,7.10
2018-05-31T04:53:45.294Z,7.57
2018-05-31T04:56:13.588Z,6.40
2018-05-31T04:58:41.871Z,7.27
2018-05-31T05:01:10.159Z,8.63
2018-05-31T05:03:39.645Z,11.43
2018-05-31T05:06:07.925Z,9.97
2018-05-31T05:08:36.204Z,8.67
2018-05-31T05:11:04.474Z,7.30
2018-05-31T05:13:32.757Z,9.27
2018-05-31T05:16:01.028Z,5.20
2018-05-31T05:18:29.309Z,9.30
2018-05-31T05:20:57.585Z,4.77
2018-05-31T05:23:25.874Z,4.53
2018-05-31T05:25:54.139Z,7.50
2018-05-31T05:28:23.231Z,8.43
2018-05-31T05:30:51.504Z,8.90
2018-05-31T05:33:19.778Z,8.57
2018-05-31T05:35:48.078Z,9.30
2018-05-31T05:38:16.358Z,8.03
2018-05-31T05:40:44.637Z,5.37
2018-05-31T05:43:12.913Z,7.97
2018-05-31T05:45:41.202Z,8.63
2018-05-31T05:48:09.478Z,5.87
2018-05-31T05:50:37.772Z,10.87
2018-05-31T05:53:06.067Z,9.80
2018-05-31T05:55:34.359Z,6.50
2018-05-31T05:58:02.626Z,7.70
2018-05-31T06:00:30.897Z,5.97
2018-05-31T06:02:59.174Z,6.87
2018-05-31T06:05:27.451Z,8.40
2018-05-31T06:07:55.733Z,7.27
2018-05-31T06:10:24.051Z,4.13
2018-05-31T06:12:52.315Z,10.57
2018-05-31T06:15:20.586Z,8.57
2018-05-31T06:17:48.862Z,7.67
2018-05-31T06:20:17.140Z,6.20
2018-05-31T06:22:45.418Z,4.60
2018-05-31T06:25:13.689Z,6.40
2018-05-31T06:27:41.978Z,6.43
2018-05-31T06:30:10.247Z,8.87
2018-05-31T06:32:38.518Z,5.63
2018-05-31T06:35:06.798Z,9.03
2018-05-31T06:37:35.070Z,9.13
2018-05-31T06:40:03.355Z,5.57
2018-05-31T06:42:31.632Z,6.87
2018-05-31T06:44:59.903Z,6.83
2018-05-31T06:47:28.170Z,5.80
2018-05-31T06:49:56.461Z,6.40
2018-05-31T06:52:25.209Z,10.47
2018-05-31T06:54:53.497Z,5.10
2018-05-31T06:57:21.794Z,7.93
2018-05-31T06:59:50.101Z,6.17
2018-05-31T07:02:19.324Z,9.37
2018-05-31T07:04:47.605Z,6.63
2018-05-31T07:07:15.878Z,7.07
2018-05-31T07:09:44.150Z,4.97
2018-05-31T07:12:12.430Z,4.70
2018-05-31T07:14:40.702Z,4.67
2018-05-31T07:17:11.202Z,5.87
2018-05-31T07:19:41.438Z,7.67
2018-05-31T07:22:10.151Z,7.77
2018-05-31T07:24:38.422Z,6.53
2018-05-31T07:27:06.721Z,6.00
2018-05-31T07:29:34.974Z,9.30
2018-05-31T07:32:03.237Z,8.40
2018-05-31T07:34:32.357Z,8.17
2018-05-31T07:37:00.654Z,7.67
2018-05-31T07:39:28.933Z,7.57
2018-05-31T07:41:57.216Z,8.63
2018-05-31T07:44:25.562Z,6.90
2018-05-31T07:46:53.761Z,8.23
2018-05-31T07:49:22.051Z,7.57
2018-05-31T07:51:50.326Z,8.90
2018-05-31T07:54:18.624Z,8.93
2018-05-31T07:56:46.934Z,8.33
2018-05-31T07:59:15.178Z,7.30
2018-05-31T08:01:43.666Z,8.47
2018-05-31T08:04:12.092Z,8.23
2018-05-31T08:06:40.406Z,7.27
2018-05-31T08:09:08.681Z,6.03
2018-05-31T08:11:37.285Z,7.97
2018-05-31T08:14:05.563Z,9.80
2018-05-31T08:16:34.033Z,5.97
2018-05-31T08:19:02.306Z,6.00
2018-05-31T08:21:30.579Z,9.93
2018-05-31T08:23:58.863Z,11.60
2018-05-31T08:26:27.147Z,7.63
2018-05-31T08:28:55.503Z,9.97
2018-05-31T08:31:23.848Z,6.30
2018-05-31T08:33:52.045Z,9.57
2018-05-31T08:36:20.325Z,7.43
2018-05-31T08:38:48.649Z,5.53
2018-05-31T08:41:16.898Z,6.33
2018-05-31T08:43:45.174Z,6.60
2018-05-31T08:46:13.474Z,11.43
2018-05-31T08:48:41.745Z,4.80
2018-05-31T08:51:10.076Z,5.87
2018-05-31T08:53:38.299Z,7.10
2018-05-31T08:56:06.566Z,7.27
2018-05-31T08:58:34.842Z,8.80
2018-05-31T09:01:03.891Z,6.03
2018-05-31T09:03:32.168Z,8.80
2018-05-31T09:06:00.439Z,6.80
2018-05-31T09:08:28.733Z,7.03
2018-05-31T09:10:57.018Z,10.00
2018-05-31T09:13:25.294Z,8.23
2018-05-31T09:15:53.568Z,4.73
2018-05-31T09:18:21.844Z,5.47
2018-05-31T09:20:50.123Z,6.23
2018-05-31T09:23:18.399Z,7.20
2018-05-31T09:25:46.681Z,8.23
2018-05-31T09:28:14.990Z,7.77
2018-05-31T09:30:43.242Z,6.03
2018-05-31T09:33:11.522Z,7.30
2018-05-31T09:35:40.607Z,8.40
2018-05-31T09:38:08.887Z,7.30
2018-05-31T09:40:37.162Z,6.57
2018-05-31T09:43:05.459Z,5.53
2018-05-31T09:45:33.722Z,9.23
2018-05-31T09:48:02.003Z,6.03
2018-05-31T09:50:30.277Z,4.80
2018-05-31T09:52:58.578Z,6.17
2018-05-31T09:55:26.855Z,5.80
2018-05-31T09:57:55.130Z,7.37
2018-05-31T10:00:23.415Z,3.77
2018-05-31T10:02:51.683Z,5.53
2018-05-31T10:05:19.970Z,5.57
2018-05-31T10:07:48.242Z,3.57
2018-05-31T10:10:16.525Z,6.23
2018-05-31T10:12:44.802Z,7.23
2018-05-31T10:15:13.070Z,4.97
2018-05-31T10:17:41.351Z,5.33
2018-05-31T10:20:09.617Z,6.03
2018-05-31T10:22:37.922Z,6.47
2018-05-31T10:25:06.202Z,5.30
2018-05-31T10:27:34.500Z,6.50
2018-05-31T10:30:02.777Z,8.40
2018-05-31T10:32:31.072Z,8.77
2018-05-31T10:34:59.343Z,9.77
2018-05-31T10:37:27.606Z,4.93
2018-05-31T10:39:55.891Z,5.63
2018-05-31T10:42:24.170Z,6.40
2018-05-31T10:44:52.450Z,6.63
2018-05-31T10:47:21.629Z,6.87
2018-05-31T10:49:49.910Z,7.90
2018-05-31T10:52:18.195Z,7.40
2018-05-31T10:54:46.480Z,6.80
2018-05-31T10:57:14.749Z,8.80
2018-05-31T10:59:43.035Z,8.20
2018-05-31T11:02:11.306Z,9.03
2018-05-31T11:04:39.571Z,5.73
2018-05-31T11:07:07.857Z,8.03
2018-05-31T11:09:36.129Z,7.97
2018-05-31T11:12:04.407Z,7.37
2018-05-31T11:14:32.677Z,7.23
2018-05-31T11:17:00.953Z,9.70
2018-05-31T11:19:29.230Z,6.70
2018-05-31T11:21:57.511Z,9.00
2018-05-31T11:24:25.958Z,6.20
2018-05-31T11:26:55.229Z,7.27
2018-05-31T11:29:23.495Z,6.83
2018-05-31T11:31:51.815Z,10.00
2018-05-31T11:34:20.096Z,8.57
2018-05-31T11:36:48.394Z,8.20
2018-05-31T11:39:18.698Z,9.07
2018-05-31T11:41:47.939Z,7.13
2018-05-31T11:44:16.215Z,7.60
2018-05-31T11:46:44.485Z,7.20
2018-05-31T11:49:12.764Z,7.20
2018-05-31T11:51:41.043Z,8.60
2018-05-31T11:54:09.326Z,7.77
2018-05-31T11:56:37.593Z,7.90
2018-05-31T11:59:05.890Z,8.63
2018-05-31T12:01:34.172Z,8.73
2018-05-31T12:04:02.449Z,8.50
2018-05-31T12:06:30.784Z,8.17
2018-05-31T12:08:59.006Z,6.97
2018-05-31T12:11:27.289Z,8.27
2018-05-31T12:13:56.538Z,8.60
2018-05-31T12:16:24.826Z,6.00
2018-05-31T12:18:53.101Z,8.57
2018-05-31T12:21:21.381Z,8.20
2018-05-31T12:23:49.659Z,8.93
2018-05-31T12:26:17.992Z,8.07
2018-05-31T12:28:46.281Z,8.83
2018-05-31T12:31:14.561Z,9.63
2018-05-31T12:33:42.851Z,7.57
2018-05-31T12:36:11.150Z,7.03
2018-05-31T12:38:39.418Z,7.93
2018-05-31T12:41:07.697Z,16.93
2018-05-31T12:43:39.130Z,13.63
2018-05-31T12:46:07.411Z,11.33
2018-05-31T12:48:35.690Z,8.23
2018-05-31T12:51:03.975Z,9.00
2018-05-31T12:53:32.255Z,12.27
2018-05-31T12:56:00.599Z,10.27
2018-05-31T12:58:28.887Z,10.97
2018-05-31T13:00:57.159Z,8.77
2018-05-31T13:03:25.440Z,9.90
2018-05-31T13:05:53.988Z,7.53
2018-05-31T13:08:22.203Z,10.93
2018-05-31T13:10:50.694Z,6.33
2018-05-31T13:13:18.978Z,9.40
2018-05-31T13:15:47.259Z,8.50
2018-05-31T13:18:15.530Z,7.83
2018-05-31T13:20:43.815Z,10.67
2018-05-31T13:23:12.094Z,10.70
2018-05-31T13:25:40.378Z,5.90
2018-05-31T13:28:08.647Z,7.57
2018-05-31T13:30:37.044Z,7.57
2018-05-31T13:33:05.399Z,6.83
2018-05-31T13:35:33.682Z,7.20
2018-05-31T13:38:01.960Z,9.07
2018-05-31T13:40:30.270Z,12.13
2018-05-31T13:42:58.589Z,9.07
2018-05-31T13:45:26.839Z,9.50
2018-05-31T13:47:55.163Z,7.67
2018-05-31T13:50:23.446Z,9.03
2018-05-31T13:52:51.720Z,9.83
2018-05-31T13:55:19.992Z,10.00
2018-05-31T13:57:48.282Z,10.83
2018-05-31T14:00:16.555Z,7.07
2018-05-31T14:02:44.839Z,8.33
2018-05-31T14:05:13.110Z,8.50
2018-05-31T14:07:41.410Z,9.97
2018-05-31T14:10:09.682Z,7.60
2018-05-31T14:12:37.974Z,8.47
2018-05-31T14:15:06.258Z,8.20
2018-05-31T14:17:34.538Z,6.70
2018-05-31T14:20:02.837Z,8.53
2018-05-31T14:22:31.292Z,11.73
2018-05-31T14:25:00.495Z,7.10
2018-05-31T14:27:28.791Z,6.63
2018-05-31T14:29:57.119Z,8.33
2018-05-31T14:32:25.432Z,8.57
2018-05-31T14:34:53.736Z,6.90
2018-05-31T14:37:21.978Z,7.20
2018-05-31T14:39:50.275Z,10.00
2018-05-31T14:42:18.608Z,7.23
2018-05-31T14:44:46.878Z,7.87
2018-05-31T14:47:15.163Z,8.17
2018-05-31T14:49:43.437Z,9.03
2018-05-31T14:52:11.714Z,8.43
2018-05-31T14:54:39.995Z,11.73
2018-05-31T14:57:08.282Z,7.60
2018-05-31T14:59:36.642Z,6.50
2018-05-31T15:02:05.194Z,6.67
2018-05-31T15:04:39.602Z,8.27
2018-05-31T15:07:07.893Z,9.63
2018-05-31T15:09:36.170Z,11.43
2018-05-31T15:12:04.450Z,10.93
2018-05-31T15:14:32.742Z,9.63
2018-05-31T15:17:01.010Z,9.53
2018-05-31T15:19:29.295Z,8.20
2018-05-31T15:21:57.593Z,7.90
2018-05-31T15:24:27.875Z,5.67
2018-05-31T15:26:56.698Z,8.10
2018-05-31T15:29:26.328Z,11.63
2018-05-31T15:32:11.290Z,10.37
2018-05-31T15:34:49.745Z,6.57
2018-05-31T15:37:18.997Z,6.27
2018-05-31T15:39:47.258Z,6.33
2018-05-31T15:42:15.546Z,9.17
2018-05-31T15:44:43.838Z,9.60
2018-05-31T15:47:12.118Z,7.40
2018-05-31T15:49:40.931Z,6.80
2018-05-31T15:52:09.215Z,7.70
2018-05-31T15:54:37.489Z,9.43
2018-05-31T15:57:05.802Z,9.80
2018-05-31T15:59:34.040Z,7.90
2018-05-31T16:02:02.311Z,9.30
2018-05-31T16:04:30.590Z,4.70
2018-05-31T16:06:58.862Z,6.87
2018-05-31T16:09:27.160Z,9.20
2018-05-31T16:11:55.432Z,7.47
2018-05-31T16:14:23.737Z,7.63
2018-05-31T16:16:51.993Z,5.07
2018-05-31T16:19:20.283Z,9.63
2018-05-31T16:22:05.118Z,10.77
2018-05-31T16:24:33.407Z,8.57
2018-05-31T16:27:01.683Z,8.13
2018-05-31T16:29:30.023Z,6.33
2018-05-31T16:32:00.489Z,7.37
2018-05-31T16:34:28.786Z,7.80
2018-05-31T16:36:57.062Z,7.90
2018-05-31T16:39:25.338Z,7.10
2018-05-31T16:41:53.622Z,8.87
2018-05-31T16:44:21.890Z,8.30
2018-05-31T16:46:50.185Z,9.30
2018-05-31T16:49:18.458Z,11.77
2018-05-31T16:51:47.134Z,8.43
2018-05-31T16:54:15.386Z,6.67
2018-05-31T16:56:43.666Z,6.80
2018-05-31T16:59:12.927Z,5.13
2018-05-31T17:02:04.192Z,7.90
2018-05-31T17:04:35.126Z,8.33
2018-05-31T17:07:05.374Z,8.33
2018-05-31T17:09:33.675Z,10.80
2018-05-31T17:12:07.511Z,13.53
2018-05-31T17:14:35.831Z,5.57
2018-05-31T17:17:04.098Z,6.93
2018-05-31T17:19:32.379Z,5.63
2018-05-31T17:22:00.651Z,7.03
2018-05-31T17:24:28.943Z,8.33
2018-05-31T17:27:07.563Z,8.00
2018-05-31T17:29:35.886Z,6.90
2018-05-31T17:32:04.166Z,7.17
2018-05-31T17:34:32.448Z,7.10
2018-05-31T17:37:00.981Z,7.20
2018-05-31T17:39:30.509Z,7.63
2018-05-31T17:41:59.097Z,8.87
2018-05-31T17:44:27.716Z,7.13
2018-05-31T17:46:56.927Z,8.90
2018-05-31T17:49:25.533Z,7.27
2018-05-31T17:51:54.913Z,7.90
2018-05-31T17:54:23.267Z,6.17
2018-05-31T17:56:52.342Z,9.63
2018-05-31T17:59:21.274Z,9.10
2018-05-31T18:01:49.557Z,7.50
2018-05-31T18:04:18.208Z,7.50
2018-05-31T18:06:46.495Z,8.03
2018-05-31T18:09:14.850Z,5.77
2018-05-31T18:11:43.111Z,8.63
2018-05-31T18:14:11.394Z,5.73
2018-05-31T18:16:39.669Z,6.23
2018-05-31T18:19:07.956Z,5.47
2018-05-31T18:21:36.352Z,8.93
2018-05-31T18:24:04.630Z,6.80
2018-05-31T18:26:32.979Z,6.17
2018-05-31T18:29:01.275Z,4.33
2018-05-31T18:31:29.534Z,9.17
2018-05-31T18:33:57.825Z,10.13
2018-05-31T18:36:26.109Z,9.27
2018-05-31T18:38:54.398Z,7.03
2018-05-31T18:41:22.662Z,8.27
2018-05-31T18:43:50.946Z,5.73
2018-05-31T18:46:19.228Z,6.77
2018-05-31T18:48:47.511Z,8.40
2018-05-31T18:51:19.746Z,9.60
2018-05-31T18:53:48.041Z,9.77
2018-05-31T18:56:16.322Z,8.93
2018-05-31T18:58:44.606Z,10.50
2018-05-31T19:01:12.907Z,10.60
2018-05-31T19:03:41.171Z,13.53
2018-05-31T19:06:09.468Z,7.83
2018-05-31T19:08:37.742Z,7.07
2018-05-31T19:11:06.048Z,10.40
2018-05-31T19:13:39.966Z,7.53
2018-05-31T19:16:08.247Z,7.43
2018-05-31T19:18:42.140Z,10.47
2018-05-31T19:21:10.428Z,13.77
2018-05-31T19:23:38.726Z,10.53
2018-05-31T19:26:07.007Z,11.83
2018-05-31T19:28:35.278Z,7.63
2018-05-31T19:31:09.119Z,10.53
2018-05-31T19:33:37.399Z,10.30
2018-05-31T19:36:11.181Z,12.70
2018-05-31T19:38:39.498Z,13.57
2018-05-31T19:41:10.028Z,11.60
2018-05-31T19:43:43.944Z,10.83
2018-05-31T19:46:12.223Z,10.63
2018-05-31T19:48:40.518Z,13.73
2018-05-31T19:51:08.815Z,10.20
2018-05-31T19:53:42.783Z,9.23
2018-05-31T19:56:17.979Z,11.37
2018-05-31T19:58:51.811Z,12.67
2018-05-31T20:01:25.669Z,13.00
2018-05-31T20:03:53.986Z,13.57
2018-05-31T20:06:22.263Z,16.60
2018-05-31T20:08:50.546Z,14.13
2018-05-31T20:11:18.826Z,11.83
2018-05-31T20:13:47.116Z,15.20
2018-05-31T20:16:15.413Z,19.13
2018-05-31T20:18:43.707Z,10.67
2018-05-31T20:21:11.998Z,16.07
2018-05-31T20:23:40.287Z,10.67
2018-05-31T20:26:08.570Z,12.37
2018-05-31T20:28:36.846Z,10.00
2018-05-31T20:31:05.142Z,12.33
2018-05-31T20:33:33.429Z,11.47
2018-05-31T20:36:01.715Z,11.13
2018-05-31T20:38:30.007Z,20.57
2018-05-31T20:40:58.326Z,16.90
2018-05-31T20:43:26.619Z,14.40
2018-05-31T20:45:54.953Z,15.00
2018-05-31T20:48:23.233Z,12.50
2018-05-31T20:50:51.514Z,16.20
2018-05-31T20:53:19.811Z,15.03
2018-05-31T20:55:48.118Z,15.63
2018-05-31T20:58:16.421Z,12.43
2018-05-31T21:00:44.714Z,11.33
2018-05-31T21:03:13.003Z,13.70
2018-05-31T21:05:41.299Z,12.60
2018-05-31T21:08:09.659Z,15.60
2018-05-31T21:10:37.934Z,16.87
2018-05-31T21:13:06.222Z,18.37
2018-05-31T21:15:34.528Z,11.17
2018-05-31T21:18:02.822Z,13.73
2018-05-31T21:20:31.114Z,18.60
2018-05-31T21:23:00.342Z,12.97
2018-05-31T21:25:28.631Z,11.87
2018-05-31T21:28:01.555Z,12.90
2018-05-31T21:30:33.457Z,13.30
2018-05-31T21:33:01.736Z,11.83
2018-05-31T21:35:30.076Z,12.60
2018-05-31T21:37:58.346Z,9.73
2018-05-31T21:40:26.618Z,13.37
2018-05-31T21:42:54.902Z,12.13
2018-05-31T21:45:23.198Z,14.33
2018-05-31T21:47:51.498Z,15.57
2018-05-31T21:50:19.791Z,10.37
2018-05-31T21:52:48.074Z,12.50
2018-05-31T21:55:16.390Z,9.20
2018-05-31T21:57:44.667Z,12.20
2018-05-31T22:00:43.064Z,11.93
2018-05-31T22:03:11.385Z,11.53
2018-05-31T22:05:40.824Z,15.80
2018-05-31T22:08:09.094Z,13.73
2018-05-31T22:10:37.409Z,11.63
2018-05-31T22:13:09.244Z,10.43
2018-05-31T22:15:37.506Z,15.23
2018-05-31T22:18:05.795Z,13.50
2018-05-31T22:20:34.115Z,13.93
2018-05-31T22:23:02.395Z,10.07
2018-05-31T22:25:30.689Z,12.50
2018-05-31T22:27:58.973Z,13.43
2018-05-31T22:30:27.280Z,11.93
2018-05-31T22:32:55.559Z,12.03
2018-05-31T22:35:23.850Z,14.00
2018-05-31T22:37:52.132Z,12.53
2018-05-31T22:40:20.418Z,11.10
2018-05-31T22:42:48.698Z,11.43
2018-05-31T22:45:16.990Z,10.70
2018-05-31T22:47:45.322Z,13.23
2018-05-31T22:50:13.653Z,13.03
2018-05-31T22:52:41.936Z,16.50
2018-05-31T22:55:10.218Z,12.87
2018-05-31T22:57:38.506Z,9.70
2018-05-31T23:00:06.787Z,13.17
2018-05-31T23:02:34.834Z,14.00
2018-05-31T23:05:03.113Z,14.07
2018-05-31T23:07:31.405Z,13.57
2018-05-31T23:09:59.683Z,14.70
2018-05-31T23:12:27.974Z,15.10
2018-05-31T23:14:56.253Z,11.10
2018-05-31T23:17:24.550Z,12.23
2018-05-31T23:19:52.846Z,14.60
2018-05-31T23:22:21.129Z,10.43
2018-05-31T23:24:49.421Z,9.93
2018-05-31T23:27:17.710Z,14.27
2018-05-31T23:29:46.013Z,12.07
2018-05-31T23:32:14.288Z,12.90
2018-05-31T23:34:42.582Z,12.00
2018-05-31T23:37:10.858Z,12.43
2018-05-31T23:39:39.146Z,8.47
2018-05-31T23:42:07.423Z,12.37
2018-05-31T23:44:35.707Z,11.83
2018-05-31T23:47:03.993Z,14.03
2018-05-31T23:49:32.604Z,13.03
2018-05-31T23:52:00.823Z,12.10
2018-05-31T23:54:29.106Z,10.73
2018-05-31T23:56:57.414Z,12.33
2018-05-31T23:59:25.691Z,12.57
